Time;durP1;ratioP1;P1;durP2;ratioP2;P2;SDS_P1;SDS_P2;PMS_P1;PMS_P2;Temp;Humidity;BMP_temperature;BMP_pressure;BME280_temperature;BME280_humidity;BME280_pressure;Samples;Min_cycle;Max_cycle;Signal;HPM_P1;HPM_P2
2022/08/14 00:00:12;;;;;;;9.55;6.72;;;17.90;99.90;;;;;;5027420;28;20045;-44
2022/08/14 00:02:39;;;;;;;7.75;7.03;;;17.80;99.90;;;;;;5026490;28;20513;-44
2022/08/14 00:05:09;;;;;;;7.47;6.72;;;17.80;99.90;;;;;;5029314;28;20041;-47
2022/08/14 00:07:36;;;;;;;8.48;6.82;;;17.70;99.90;;;;;;5028357;28;20124;-45
2022/08/14 00:10:04;;;;;;;8.18;6.88;;;17.60;99.90;;;;;;5028890;28;20451;-45
2022/08/14 00:12:33;;;;;;;8.88;7.05;;;17.60;99.90;;;;;;5029260;28;20053;-45
2022/08/14 00:14:59;;;;;;;7.20;6.15;;;17.60;99.90;;;;;;5029182;28;20046;-45
2022/08/14 00:17:25;;;;;;;8.50;7.15;;;17.60;99.90;;;;;;5030217;28;20033;-46
2022/08/14 00:19:51;;;;;;;8.98;6.45;;;17.50;99.90;;;;;;5030220;28;20037;-46
2022/08/14 00:22:17;;;;;;;10.38;6.68;;;17.60;99.90;;;;;;5030506;28;20069;-45
2022/08/14 00:24:44;;;;;;;11.98;8.10;;;17.40;99.90;;;;;;5029749;28;20041;-44
2022/08/14 00:27:10;;;;;;;10.57;8.10;;;17.40;99.90;;;;;;5030573;28;20040;-46
2022/08/14 00:29:35;;;;;;;10.50;7.82;;;17.40;99.90;;;;;;5030917;28;20394;-44
2022/08/14 00:32:01;;;;;;;9.30;8.40;;;17.40;99.90;;;;;;5030570;28;20038;-45
2022/08/14 00:34:27;;;;;;;12.50;8.90;;;17.30;99.90;;;;;;5031215;28;20132;-46
2022/08/14 00:36:52;;;;;;;10.48;8.50;;;17.30;99.90;;;;;;5030613;28;20048;-45
2022/08/14 00:39:18;;;;;;;9.60;8.65;;;17.20;99.90;;;;;;5031133;28;20124;-44
2022/08/14 00:41:46;;;;;;;13.55;9.15;;;17.20;99.90;;;;;;5030109;28;20442;-45
2022/08/14 00:44:13;;;;;;;11.75;9.63;;;17.20;99.90;;;;;;5030544;28;20045;-45
2022/08/14 00:46:39;;;;;;;14.65;9.82;;;17.10;99.90;;;;;;5030200;28;20040;-45
2022/08/14 00:49:07;;;;;;;11.45;10.25;;;17.10;99.90;;;;;;5029822;28;20172;-45
2022/08/14 00:51:33;;;;;;;11.80;10.30;;;17.40;99.90;;;;;;5030253;28;20099;-46
2022/08/14 00:54:01;;;;;;;11.18;10.05;;;17.10;99.90;;;;;;5030205;28;20439;-45
2022/08/14 00:56:28;;;;;;;11.98;10.88;;;17.00;99.90;;;;;;5029961;28;20049;-45
2022/08/14 00:58:54;;;;;;;11.07;9.98;;;17.30;99.90;;;;;;5029729;28;20052;-45
2022/08/14 01:01:20;;;;;;;10.68;9.52;;;17.00;99.90;;;;;;5029700;28;20060;-46
2022/08/14 01:03:46;;;;;;;11.65;9.95;;;16.90;99.90;;;;;;5029610;28;20045;-46
2022/08/14 01:06:16;;;;;;;11.90;10.70;;;16.90;99.90;;;;;;5029808;28;20048;-44
2022/08/14 01:08:43;;;;;;;11.05;9.95;;;17.20;99.90;;;;;;5029225;28;20054;-46
2022/08/14 01:11:14;;;;;;;11.20;10.00;;;16.90;99.90;;;;;;5029039;28;20128;-46
2022/08/14 01:13:42;;;;;;;10.77;9.60;;;16.90;99.90;;;;;;5029727;28;20095;-46
2022/08/14 01:16:12;;;;;;;11.02;9.68;;;16.80;99.90;;;;;;5029391;28;20042;-44
2022/08/14 01:21:44;;;;;;;14.57;11.05;;;16.70;99.90;;;;;;5029805;28;20522;-46
2022/08/14 01:24:13;;;;;;;13.60;12.20;;;16.70;99.90;;;;;;5029668;28;20499;-45
2022/08/14 01:26:40;;;;;;;17.73;11.00;;;16.70;99.90;;;;;;5029449;28;20049;-45
2022/08/14 01:29:06;;;;;;;16.42;11.95;;;16.80;99.90;;;;;;5028999;28;20046;-45
2022/08/14 01:31:45;;;;;;;13.75;12.35;;;16.80;99.90;;;;;;5029272;28;20041;-45
2022/08/14 01:34:10;;;;;;;14.02;12.55;;;16.80;99.90;;;;;;5029314;28;20041;-45
2022/08/14 01:36:37;;;;;;;13.50;12.20;;;16.80;99.90;;;;;;5029309;28;20048;-45
2022/08/14 01:39:09;;;;;;;15.65;12.85;;;16.80;99.90;;;;;;5028288;28;20045;-47
2022/08/14 01:41:35;;;;;;;12.65;11.35;;;16.90;99.90;;;;;;5029405;28;20542;-45
2022/08/14 01:44:05;;;;;;;13.93;12.63;;;16.80;99.90;;;;;;5029103;28;20045;-45
2022/08/14 01:46:36;;;;;;;16.70;13.77;;;16.90;99.90;;;;;;5028841;28;20050;-44
2022/08/14 01:49:10;;;;;;;15.93;13.05;;;16.80;99.90;;;;;;5028431;28;20412;-44
2022/08/14 01:51:38;;;;;;;14.02;11.98;;;17.00;99.90;;;;;;5029130;28;20111;-45
2022/08/14 01:54:10;;;;;;;13.63;12.23;;;16.90;99.90;;;;;;5028609;28;20103;-45
2022/08/14 01:56:38;;;;;;;13.52;11.93;;;16.90;99.90;;;;;;5029197;28;20112;-46
2022/08/14 01:59:31;;;;;;;13.60;12.13;;;16.90;99.90;;;;;;5011503;28;20049;-45
2022/08/14 02:01:58;;;;;;;14.80;13.32;;;16.90;99.90;;;;;;5021529;28;20123;-45
2022/08/14 02:04:29;;;;;;;13.65;11.80;;;17.00;99.90;;;;;;5029533;28;20567;-45
2022/08/14 02:06:56;;;;;;;13.80;12.50;;;17.00;99.90;;;;;;5028339;28;20047;-45
2022/08/14 02:09:22;;;;;;;14.45;13.07;;;17.00;99.90;;;;;;5028470;28;20312;-46
2022/08/14 02:11:49;;;;;;;15.48;13.27;;;17.00;99.90;;;;;;5028614;28;20045;-45
2022/08/14 02:14:16;;;;;;;14.90;12.45;;;17.10;99.90;;;;;;5028535;28;20057;-45
2022/08/14 02:16:47;;;;;;;13.95;12.60;;;17.10;99.90;;;;;;5028353;28;20100;-46
2022/08/14 02:19:18;;;;;;;14.90;12.63;;;17.10;99.90;;;;;;5028447;28;20128;-45
2022/08/14 02:21:46;;;;;;;14.73;13.32;;;17.00;99.90;;;;;;5028057;28;20128;-45
2022/08/14 02:24:13;;;;;;;14.07;12.63;;;17.10;99.90;;;;;;5028325;28;20041;-44
2022/08/14 02:26:40;;;;;;;15.88;13.43;;;17.00;99.90;;;;;;5028142;28;20110;-45
2022/08/14 02:29:09;;;;;;;14.00;12.60;;;17.00;99.90;;;;;;5028311;28;20120;-45
2022/08/14 02:31:39;;;;;;;14.13;12.73;;;17.00;99.90;;;;;;5028488;28;20507;-46
2022/08/14 02:34:09;;;;;;;14.65;13.25;;;17.10;99.90;;;;;;5028552;28;20055;-45
2022/08/14 02:36:39;;;;;;;15.60;12.75;;;17.20;99.90;;;;;;5027859;28;20041;-44
2022/08/14 02:39:07;;;;;;;14.27;12.75;;;17.20;99.90;;;;;;5027616;28;20076;-45
2022/08/14 02:41:34;;;;;;;13.57;12.32;;;17.30;99.90;;;;;;5028249;28;20120;-46
2022/08/14 02:44:02;;;;;;;14.32;12.93;;;17.30;99.90;;;;;;5028302;28;20046;-44
2022/08/14 02:46:29;;;;;;;14.45;13.15;;;17.40;99.90;;;;;;5028864;28;20045;-44
2022/08/14 02:48:55;;;;;;;14.75;13.15;;;17.30;99.90;;;;;;5028330;28;20049;-45
2022/08/14 02:51:21;;;;;;;14.00;12.60;;;17.30;99.90;;;;;;5028217;28;20032;-44
2022/08/14 02:53:48;;;;;;;14.57;13.07;;;17.20;99.90;;;;;;5028001;28;20392;-46
2022/08/14 02:56:16;;;;;;;14.05;12.65;;;17.20;99.90;;;;;;5028307;28;20037;-46
2022/08/14 02:58:47;;;;;;;18.40;12.95;;;17.20;99.90;;;;;;5028041;28;20056;-45
2022/08/14 03:01:15;;;;;;;14.17;12.57;;;17.30;99.90;;;;;;5027514;28;20081;-44
2022/08/14 03:03:43;;;;;;;14.10;12.45;;;17.30;99.90;;;;;;5028105;28;20772;-48
2022/08/14 03:06:09;;;;;;;14.35;12.85;;;17.40;99.90;;;;;;5027636;28;20041;-44
2022/08/14 03:08:37;;;;;;;14.40;13.00;;;17.40;99.90;;;;;;5027631;28;20105;-45
2022/08/14 03:11:06;;;;;;;14.07;12.77;;;17.50;99.90;;;;;;5027760;28;20148;-45
2022/08/14 03:13:36;;;;;;;13.35;12.05;;;17.50;99.90;;;;;;5027651;28;20052;-44
2022/08/14 03:16:06;;;;;;;14.90;13.20;;;17.50;99.90;;;;;;5027964;28;20068;-48
2022/08/14 03:18:32;;;;;;;14.18;12.73;;;17.60;99.90;;;;;;5027866;28;20045;-44
2022/08/14 03:21:01;;;;;;;14.25;12.70;;;17.70;99.90;;;;;;5028248;28;20045;-46
2022/08/14 03:23:26;;;;;;;14.18;12.77;;;17.70;99.90;;;;;;5027805;28;20485;-44
2022/08/14 03:25:52;;;;;;;14.07;12.68;;;17.70;99.90;;;;;;5027764;28;20034;-44
2022/08/14 03:28:18;;;;;;;14.25;12.95;;;17.70;99.90;;;;;;5027699;28;20056;-45
2022/08/14 03:30:44;;;;;;;15.35;13.75;;;17.70;99.90;;;;;;5027832;28;20045;-44
2022/08/14 03:33:11;;;;;;;14.38;12.95;;;17.80;99.90;;;;;;5028242;28;20107;-45
2022/08/14 03:35:39;;;;;;;14.35;13.05;;;17.50;99.90;;;;;;5031360;28;20120;-45
2022/08/14 03:38:10;;;;;;;15.25;13.75;;;17.30;99.90;;;;;;5032064;28;20044;-45
2022/08/14 03:40:38;;;;;;;16.10;14.50;;;17.20;99.90;;;;;;5031740;28;20369;-45
2022/08/14 03:43:06;;;;;;;15.88;14.35;;;17.00;99.90;;;;;;5031456;28;20507;-44
2022/08/14 03:45:34;;;;;;;20.30;15.20;;;16.90;99.90;;;;;;5031164;28;20112;-45
2022/08/14 03:48:14;;;;;;;16.48;14.82;;;16.80;99.90;;;;;;5031546;28;20444;-45
2022/08/14 03:50:43;;;;;;;19.48;14.60;;;16.70;99.90;;;;;;5031766;28;20049;-45
2022/08/14 03:53:12;;;;;;;17.33;15.25;;;16.80;99.90;;;;;;5031688;28;20081;-45
2022/08/14 03:55:38;;;;;;;16.60;15.00;;;16.90;99.90;;;;;;5031369;28;20095;-45
2022/08/14 03:58:06;;;;;;;15.27;13.70;;;16.90;99.90;;;;;;5031299;28;20638;-45
2022/08/14 04:00:32;;;;;;;16.63;14.65;;;16.90;99.90;;;;;;5031066;28;20045;-44
2022/08/14 04:02:58;;;;;;;16.83;15.05;;;16.90;99.90;;;;;;5030984;28;20128;-45
2022/08/14 04:05:24;;;;;;;18.27;15.20;;;17.00;99.90;;;;;;5031166;28;20120;-44
2022/08/14 04:07:49;;;;;;;15.63;14.02;;;17.00;99.90;;;;;;5030803;28;20131;-45
2022/08/14 04:10:16;;;;;;;16.67;14.75;;;17.00;99.90;;;;;;5031310;28;20088;-45
2022/08/14 04:12:42;;;;;;;16.10;14.57;;;17.00;99.90;;;;;;5031306;28;20049;-45
2022/08/14 04:15:09;;;;;;;16.00;14.60;;;17.00;99.90;;;;;;5031227;28;20491;-44
2022/08/14 04:17:41;;;;;;;15.95;14.45;;;17.00;99.90;;;;;;5031300;28;20069;-45
2022/08/14 04:20:08;;;;;;;16.05;14.55;;;17.20;99.90;;;;;;5031511;28;20134;-45
2022/08/14 04:22:35;;;;;;;16.38;14.68;;;17.00;99.90;;;;;;5030919;28;20054;-45
2022/08/14 04:25:01;;;;;;;16.70;14.77;;;17.00;99.90;;;;;;5030643;28;20393;-44
2022/08/14 04:27:28;;;;;;;15.20;13.70;;;17.00;99.90;;;;;;5030873;28;20079;-45
2022/08/14 04:29:56;;;;;;;16.13;14.52;;;16.10;99.90;;;;;;5030758;28;20550;-44
2022/08/14 04:32:25;;;;;;;15.50;14.00;;;16.90;99.90;;;;;;5031410;28;20048;-44
2022/08/14 04:34:52;;;;;;;15.88;14.38;;;16.80;99.90;;;;;;5030719;28;20073;-44
2022/08/14 04:45:39;;;;;;;17.67;13.68;;;16.50;99.90;;;;;;5030210;28;20407;-44
2022/08/14 04:48:13;;;;;;;17.20;13.73;;;16.60;99.90;;;;;;5030449;28;20502;-44
2022/08/14 04:50:45;;;;;;;14.30;12.88;;;16.60;99.90;;;;;;5030538;28;20056;-44
2022/08/14 04:53:14;;;;;;;15.40;12.88;;;16.60;99.90;;;;;;5030413;28;20045;-45
2022/08/14 04:55:43;;;;;;;14.70;13.23;;;16.70;99.90;;;;;;5030331;28;20079;-45
2022/08/14 04:58:09;;;;;;;13.90;12.50;;;16.80;99.90;;;;;;5030183;28;20052;-44
2022/08/14 05:00:35;;;;;;;14.48;13.07;;;16.90;99.90;;;;;;5029824;28;20045;-44
2022/08/14 05:03:02;;;;;;;17.95;12.60;;;16.90;99.90;;;;;;5029533;28;20042;-44
2022/08/14 05:05:29;;;;;;;15.13;13.23;;;17.10;99.90;;;;;;5029898;28;20049;-45
2022/08/14 05:07:55;;;;;;;13.35;11.95;;;17.20;99.90;;;;;;5029920;28;20270;-45
2022/08/14 05:10:24;;;;;;;14.15;12.82;;;17.30;99.90;;;;;;5029411;28;20141;-44
2022/08/14 05:12:51;;;;;;;15.57;13.85;;;17.40;99.90;;;;;;5029782;28;20124;-46
2022/08/14 05:15:20;;;;;;;15.38;13.77;;;17.60;99.90;;;;;;5029894;28;20045;-45
2022/08/14 05:17:46;;;;;;;16.75;15.00;;;17.80;99.90;;;;;;5029884;28;20055;-45
2022/08/14 05:20:12;;;;;;;15.50;13.93;;;17.90;99.90;;;;;;5029620;28;20492;-45
2022/08/14 05:22:37;;;;;;;14.50;12.93;;;18.00;99.90;;;;;;5029579;28;20350;-45
2022/08/14 05:25:04;;;;;;;15.27;13.88;;;18.00;99.90;;;;;;5029426;28;20049;-46
2022/08/14 05:27:29;;;;;;;16.58;14.90;;;18.10;99.90;;;;;;5028899;28;20098;-44
2022/08/14 05:29:55;;;;;;;15.98;14.48;;;18.10;99.90;;;;;;5028970;28;20380;-46
2022/08/14 05:32:22;;;;;;;16.52;14.90;;;18.20;99.90;;;;;;5028732;28;20236;-44
2022/08/14 05:34:48;;;;;;;16.95;15.35;;;18.20;99.90;;;;;;5029039;28;20043;-45
2022/08/14 05:37:13;;;;;;;16.25;14.38;;;18.70;99.90;;;;;;5028997;28;20033;-45
2022/08/14 05:39:42;;;;;;;20.05;14.75;;;19.40;99.90;;;;;;5028715;28;20472;-45
2022/08/14 05:42:08;;;;;;;23.83;14.27;;;20.20;99.90;;;;;;5029226;28;20061;-45
2022/08/14 05:44:34;;;;;;;21.88;14.88;;;20.50;99.90;;;;;;5028673;28;20045;-46
2022/08/14 05:47:00;;;;;;;16.40;14.48;;;20.30;99.90;;;;;;5028653;28;20483;-44
2022/08/14 05:49:27;;;;;;;15.95;14.35;;;20.80;99.90;;;;;;5028232;28;20056;-45
2022/08/14 05:51:53;;;;;;;14.50;12.30;;;21.00;99.90;;;;;;5028456;28;20445;-45
2022/08/14 05:54:18;;;;;;;12.10;10.85;;;21.00;99.90;;;;;;5027967;28;20053;-44
2022/08/14 05:56:45;;;;;;;11.80;10.55;;;21.00;99.90;;;;;;5027010;28;20041;-45
2022/08/14 05:59:11;;;;;;;13.35;10.10;;;21.10;99.90;;;;;;5028805;28;20391;-47
2022/08/14 06:01:37;;;;;;;11.50;10.20;;;21.20;99.90;;;;;;5028232;28;20037;-45
2022/08/14 06:04:03;;;;;;;11.65;9.85;;;22.10;99.90;;;;;;5028307;28;20507;-45
2022/08/14 06:06:28;;;;;;;10.50;9.43;;;23.10;99.90;;;;;;5028346;28;20046;-44
2022/08/14 06:08:54;;;;;;;10.55;9.48;;;23.60;98.60;;;;;;5028091;28;20060;-45
2022/08/14 06:11:20;;;;;;;10.43;9.43;;;25.40;95.00;;;;;;5028328;28;20396;-45
2022/08/14 06:13:46;;;;;;;10.25;9.25;;;26.60;91.70;;;;;;5028230;28;20034;-45
2022/08/14 06:16:15;;;;;;;9.63;8.38;;;27.40;87.30;;;;;;5028042;28;20042;-46
2022/08/14 06:18:40;;;;;;;12.68;9.43;;;26.90;85.40;;;;;;5027029;28;20495;-45
2022/08/14 06:21:07;;;;;;;8.75;7.95;;;26.00;86.90;;;;;;5027432;28;20045;-46
2022/08/14 06:23:32;;;;;;;11.45;8.38;;;26.50;87.40;;;;;;5027573;28;20394;-45
2022/08/14 06:25:58;;;;;;;9.73;8.80;;;26.90;85.70;;;;;;5027344;28;20048;-45
2022/08/14 06:28:26;;;;;;;10.63;8.55;;;26.40;85.70;;;;;;5027287;28;20041;-46
2022/08/14 06:30:52;;;;;;;11.05;8.70;;;25.90;86.40;;;;;;5026951;28;20546;-44
2022/08/14 06:33:19;;;;;;;9.00;8.18;;;26.10;87.40;;;;;;5026792;28;20048;-45
2022/08/14 06:35:46;;;;;;;8.50;7.45;;;27.80;82.80;;;;;;5026898;28;20053;-46
2022/08/14 06:38:20;;;;;;;9.25;8.35;;;29.10;77.50;;;;;;5026838;28;20049;-45
2022/08/14 06:40:48;;;;;;;8.95;7.45;;;29.00;74.90;;;;;;5026859;28;20096;-45
2022/08/14 06:43:16;;;;;;;8.77;7.97;;;28.00;76.50;;;;;;5027152;28;20041;-46
2022/08/14 06:45:43;;;;;;;9.02;7.20;;;27.20;77.50;;;;;;5026874;28;20052;-45
2022/08/14 06:48:18;;;;;;;8.50;7.45;;;26.70;79.60;;;;;;5027178;28;20128;-45
2022/08/14 06:50:45;;;;;;;8.07;7.00;;;26.30;80.60;;;;;;5026600;28;20080;-45
2022/08/14 06:53:13;;;;;;;7.75;6.97;;;26.20;82.20;;;;;;5026896;28;20037;-46
2022/08/14 06:55:40;;;;;;;7.18;6.47;;;26.90;81.10;;;;;;5027006;28;20044;-46
2022/08/14 06:58:10;;;;;;;8.77;7.32;;;28.50;77.50;;;;;;5026865;28;20037;-48
2022/08/14 07:00:36;;;;;;;9.50;6.57;;;29.40;74.00;;;;;;5025300;28;20037;-47
2022/08/14 07:05:47;;;;;;;8.27;6.68;;;30.00;71.60;;;;;;5026355;28;20458;-46
2022/08/14 07:08:17;;;;;;;7.90;5.97;;;31.00;68.30;;;;;;5025798;28;20144;-46
2022/08/14 07:10:49;;;;;;;5.72;5.15;;;32.00;65.30;;;;;;5025580;28;20128;-45
2022/08/14 07:13:16;;;;;;;;;;;31.50;65.50;;;;;;5027109;28;20435;-45
2022/08/14 07:15:44;;;;;;;6.68;5.80;;;30.80;67.00;;;;;;5024962;28;19927;-46
2022/08/14 07:18:11;;;;;;;7.78;6.32;;;30.00;68.00;;;;;;5025977;28;20120;-46
2022/08/14 07:20:37;;;;;;;7.25;6.57;;;29.40;68.60;;;;;;5025680;28;20048;-47
2022/08/14 07:23:05;;;;;;;6.68;6.07;;;28.90;69.80;;;;;;5026006;28;20048;-47
2022/08/14 07:25:32;;;;;;;10.10;6.53;;;28.50;70.60;;;;;;5024797;28;20052;-46
2022/08/14 07:27:57;;;;;;;7.18;6.20;;;28.40;71.60;;;;;;5026329;28;20096;-47
2022/08/14 07:30:23;;;;;;;5.65;5.03;;;28.20;72.60;;;;;;5008542;28;20452;-47
2022/08/14 07:32:50;;;;;;;7.05;5.55;;;28.10;73.10;;;;;;5026054;28;20037;-46
2022/08/14 07:35:15;;;;;;;9.93;5.72;;;28.00;73.50;;;;;;5026369;28;20082;-46
2022/08/14 07:37:41;;;;;;;6.15;5.38;;;27.90;73.60;;;;;;5026555;28;20120;-46
2022/08/14 07:40:07;;;;;;;6.05;5.45;;;27.70;73.50;;;;;;5026419;28;20174;-48
2022/08/14 07:42:33;;;;;;;6.10;5.35;;;27.50;74.50;;;;;;5025970;28;20045;-47
2022/08/14 07:44:59;;;;;;;7.45;5.68;;;27.40;75.40;;;;;;5024117;28;20394;-46
2022/08/14 07:47:25;;;;;;;4.63;4.22;;;27.90;76.60;;;;;;5026063;28;20495;-46
2022/08/14 07:50:06;;;;;;;7.47;4.32;;;29.80;73.40;;;;;;5026320;28;20037;-47
2022/08/14 07:52:33;;;;;;;6.05;4.70;;;31.70;69.00;;;;;;5025827;28;20048;-46
2022/08/14 07:54:59;;;;;;;5.93;4.82;;;32.60;66.30;;;;;;5025181;28;20029;-48
2022/08/14 07:57:26;;;;;;;5.00;4.28;;;32.40;64.00;;;;;;5025979;28;20124;-46
2022/08/14 07:59:52;;;;;;;6.18;4.38;;;32.00;63.20;;;;;;5015263;28;20053;-47
2022/08/14 08:02:18;;;;;;;7.72;4.07;;;32.80;63.10;;;;;;5024720;28;20045;-46
2022/08/14 08:04:47;;;;;;;4.32;3.72;;;34.40;61.60;;;;;;5024811;28;20098;-49
2022/08/14 08:07:13;;;;;;;8.40;3.70;;;35.80;58.80;;;;;;5013445;28;20381;-48
2022/08/14 08:09:54;;;;;;;6.22;3.70;;;36.90;57.50;;;;;;5024384;28;20091;-47
2022/08/14 08:12:20;;;;;;;4.85;4.00;;;37.80;54.40;;;;;;5024250;28;20060;-47
2022/08/14 08:14:49;;;;;;;4.28;3.88;;;38.60;53.30;;;;;;5024778;28;20046;-46
2022/08/14 08:17:21;;;;;;;3.70;2.90;;;39.60;52.10;;;;;;5025048;28;20044;-47
2022/08/14 08:19:47;;;;;;;4.55;3.55;;;40.30;50.30;;;;;;5025106;28;20136;-45
2022/08/14 08:22:13;;;;;;;3.92;3.40;;;40.80;49.20;;;;;;5028694;28;20124;-46
2022/08/14 08:24:39;;;;;;;5.40;3.35;;;41.30;48.40;;;;;;5029432;28;20839;-46
2022/08/14 08:27:16;;;;;;;4.93;3.00;;;41.50;47.50;;;;;;5027772;28;20069;-46
2022/08/14 08:29:42;;;;;;;6.18;2.72;;;42.00;47.10;;;;;;5024988;28;20487;-47
2022/08/14 08:32:07;;;;;;;7.63;3.00;;;42.30;46.40;;;;;;5028287;28;20033;-47
2022/08/14 08:34:44;;;;;;;3.47;2.50;;;42.60;45.40;;;;;;5028943;28;20041;-48
2022/08/14 08:37:11;;;;;;;3.40;2.88;;;42.90;45.40;;;;;;5026869;28;20596;-46
2022/08/14 08:39:47;;;;;;;2.92;2.60;;;43.00;44.60;;;;;;5028670;28;20041;-46
2022/08/14 08:42:23;;;;;;;3.35;2.78;;;43.10;44.70;;;;;;5027817;28;20050;-46
2022/08/14 08:44:55;;;;;;;5.85;3.22;;;43.10;44.10;;;;;;5028284;28;20045;-46
2022/08/14 08:47:21;;;;;;;5.10;2.42;;;43.30;43.80;;;;;;5028519;28;20050;-48
2022/08/14 08:49:46;;;;;;;5.15;2.88;;;43.60;43.90;;;;;;5028124;28;20049;-48
2022/08/14 08:52:12;;;;;;;4.78;2.80;;;43.70;43.40;;;;;;5029078;28;20041;-47
2022/08/14 08:54:38;;;;;;;6.35;2.45;;;43.70;42.30;;;;;;5028389;28;20396;-46
2022/08/14 08:57:11;;;;;;;4.43;2.90;;;43.90;42.40;;;;;;5028238;28;20072;-46
2022/08/14 08:59:37;;;;;;;4.25;2.88;;;43.90;41.80;;;;;;5028297;28;20102;-47
2022/08/14 09:02:08;;;;;;;5.28;2.95;;;43.90;42.10;;;;;;5027841;28;20053;-47
2022/08/14 09:04:43;;;;;;;2.90;2.35;;;44.10;42.60;;;;;;5027877;28;20438;-48
2022/08/14 09:07:09;;;;;;;6.00;3.17;;;44.40;41.70;;;;;;5025119;28;20144;-46
2022/08/14 09:09:50;;;;;;;3.15;2.55;;;44.10;41.10;;;;;;5027260;28;20092;-46
2022/08/14 09:12:16;;;;;;;;;;;43.80;41.40;;;;;;5026796;28;20041;-47
2022/08/14 09:14:41;;;;;;;3.85;2.60;;;44.20;44.20;;;;;;5027355;28;19921;-46
2022/08/14 09:17:08;;;;;;;4.60;2.40;;;44.40;42.70;;;;;;5027717;28;20139;-45
2022/08/14 09:19:35;;;;;;;4.32;2.50;;;44.90;41.60;;;;;;5027711;28;20045;-46
2022/08/14 09:22:02;;;;;;;3.22;1.98;;;45.50;41.30;;;;;;5027686;28;20255;-45
2022/08/14 09:24:28;;;;;;;2.58;2.28;;;46.00;40.60;;;;;;5027719;28;20114;-46
2022/08/14 09:26:54;;;;;;;2.88;2.30;;;46.20;39.60;;;;;;5027085;28;20103;-45
2022/08/14 09:29:20;;;;;;;4.43;2.50;;;46.00;39.40;;;;;;5027229;28;20046;-46
2022/08/14 09:31:49;;;;;;;5.00;2.40;;;46.00;40.00;;;;;;5024695;28;20045;-45
2022/08/14 09:34:42;;;;;;;2.97;2.05;;;45.80;39.60;;;;;;5027585;28;20083;-46
2022/08/14 09:37:45;;;;;;;2.83;2.03;;;45.40;40.10;;;;;;5024785;28;20368;-46
2022/08/14 09:40:23;;;;;;;3.58;1.70;;;45.20;40.80;;;;;;5025653;28;20044;-45
2022/08/14 09:43:01;;;;;;;3.85;1.80;;;45.10;42.00;;;;;;5024985;28;20049;-45
2022/08/14 09:45:48;;;;;;;3.25;1.50;;;45.20;40.60;;;;;;5025851;28;20545;-46
2022/08/14 09:48:19;;;;;;;7.82;1.92;;;45.30;40.40;;;;;;5027066;28;20045;-47
2022/08/14 09:50:50;;;;;;;2.38;1.88;;;45.40;39.90;;;;;;5027378;28;20061;-47
2022/08/14 09:53:40;;;;;;;2.20;1.45;;;45.30;39.90;;;;;;5009410;28;20124;-46
2022/08/14 09:56:06;;;;;;;2.17;1.48;;;45.20;40.10;;;;;;5025236;28;20745;-45
2022/08/14 09:58:42;;;;;;;3.90;2.42;;;45.10;40.30;;;;;;5026893;28;20150;-49
2022/08/14 10:01:19;;;;;;;4.55;2.25;;;45.40;39.80;;;;;;5023878;28;20081;-46
2022/08/14 10:03:54;;;;;;;3.83;2.15;;;45.50;40.10;;;;;;5025153;28;20559;-48
2022/08/14 10:06:26;;;;;;;3.25;2.28;;;45.40;39.30;;;;;;5026693;28;20042;-46
2022/08/14 10:09:01;;;;;;;2.20;1.90;;;45.20;39.30;;;;;;5026173;28;20140;-46
2022/08/14 10:11:35;;;;;;;2.60;1.65;;;44.90;39.70;;;;;;5024219;28;20393;-46
2022/08/14 10:14:18;;;;;;;3.30;2.20;;;44.70;39.50;;;;;;5023734;28;20374;-50
2022/08/14 10:16:47;;;;;;;3.50;1.80;;;44.50;40.40;;;;;;5023949;28;20041;-46
2022/08/14 10:19:14;;;;;;;3.72;2.30;;;43.80;40.50;;;;;;5025852;28;20045;-47
2022/08/14 10:21:47;;;;;;;2.33;1.90;;;43.50;40.50;;;;;;5015277;28;20772;-48
2022/08/14 10:24:24;;;;;;;3.15;1.88;;;42.90;41.00;;;;;;5026308;28;20124;-44
2022/08/14 10:26:57;;;;;;;3.17;2.10;;;42.30;41.70;;;;;;5025627;28;20045;-44
2022/08/14 10:29:36;;;;;;;4.65;2.15;;;41.60;41.60;;;;;;5026756;28;20060;-43
2022/08/14 10:32:03;;;;;;;3.58;2.45;;;40.70;42.20;;;;;;5026064;28;20388;-40
2022/08/14 10:34:38;;;;;;;2.60;2.40;;;40.00;43.50;;;;;;5026620;28;20124;-42
2022/08/14 10:37:12;;;;;;;12.45;3.47;;;39.40;43.40;;;;;;5025887;28;20042;-42
2022/08/14 10:39:39;;;;;;;4.05;2.65;;;38.70;43.40;;;;;;5026472;28;20103;-41
2022/08/14 10:42:08;;;;;;;3.80;2.83;;;38.60;44.10;;;;;;5026315;28;20057;-41
2022/08/14 10:44:37;;;;;;;2.97;2.63;;;38.50;44.80;;;;;;5026380;28;20041;-41
2022/08/14 10:47:10;;;;;;;4.97;3.00;;;38.80;44.80;;;;;;5025963;28;20128;-41
2022/08/14 10:49:48;;;;;;;4.05;3.30;;;39.10;44.10;;;;;;5026070;28;20049;-40
2022/08/14 10:52:23;;;;;;;3.35;2.90;;;39.10;43.50;;;;;;5025749;28;20122;-41
2022/08/14 10:54:50;;;;;;;5.30;3.15;;;38.40;45.10;;;;;;5025983;28;20045;-41
2022/08/14 10:57:27;;;;;;;4.13;2.90;;;37.40;45.90;;;;;;5007912;28;20220;-42
2022/08/14 10:59:58;;;;;;;3.97;3.17;;;36.30;46.80;;;;;;5025866;28;20819;-40
2022/08/14 11:02:36;;;;;;;2.60;2.40;;;35.50;47.60;;;;;;5026036;28;20049;-41
2022/08/14 11:05:13;;;;;;;3.85;3.35;;;34.80;48.80;;;;;;5025998;28;20120;-40
2022/08/14 11:07:42;;;;;;;6.38;3.30;;;34.20;49.80;;;;;;5025717;28;20057;-40
2022/08/14 11:10:11;;;;;;;4.75;3.53;;;33.50;50.00;;;;;;5025535;28;20057;-40
2022/08/14 11:12:49;;;;;;;4.80;3.40;;;32.90;51.40;;;;;;5026281;28;20054;-40
2022/08/14 11:15:20;;;;;;;6.47;3.70;;;32.50;52.00;;;;;;5025869;28;20116;-40
2022/08/14 11:17:47;;;;;;;3.45;3.15;;;32.20;52.80;;;;;;5025762;28;20514;-40
2022/08/14 11:20:15;;;;;;;3.20;2.78;;;32.10;53.30;;;;;;5025777;28;20119;-40
2022/08/14 11:22:41;;;;;;;5.95;3.17;;;32.00;53.70;;;;;;5026257;28;20045;-41
2022/08/14 11:25:10;;;;;;;4.57;3.28;;;32.00;54.00;;;;;;5025899;28;20047;-40
2022/08/14 11:27:37;;;;;;;4.65;3.38;;;32.00;53.60;;;;;;5026102;28;20042;-42
2022/08/14 11:30:10;;;;;;;4.88;3.75;;;31.90;53.00;;;;;;5025502;28;20045;-40
2022/08/14 11:32:39;;;;;;;8.80;3.42;;;31.80;53.30;;;;;;5026167;28;20038;-40
2022/08/14 11:35:05;;;;;;;4.57;3.00;;;31.70;62.60;;;;;;5025853;28;20365;-41
2022/08/14 11:37:33;;;;;;;5.15;3.47;;;31.70;55.10;;;;;;5025672;28;20029;-40
2022/08/14 11:40:02;;;;;;;5.13;3.60;;;31.50;55.60;;;;;;5025511;28;20060;-40
2022/08/14 11:42:29;;;;;;;3.83;3.33;;;31.50;55.40;;;;;;5025898;28;20048;-40
2022/08/14 11:45:03;;;;;;;6.05;3.65;;;31.30;55.10;;;;;;5026021;28;20158;-40
2022/08/14 11:47:32;;;;;;;4.22;3.70;;;31.30;54.60;;;;;;5026161;28;20061;-41
2022/08/14 11:49:58;;;;;;;5.10;3.78;;;31.10;54.70;;;;;;5025809;28;20052;-41
2022/08/14 11:52:36;;;;;;;5.55;3.10;;;31.00;55.40;;;;;;5025352;28;20041;-41
2022/08/14 11:55:06;;;;;;;5.07;3.50;;;31.00;61.80;;;;;;5026537;28;20095;-43
2022/08/14 11:57:32;;;;;;;4.18;3.13;;;31.00;56.40;;;;;;5025325;28;20040;-40
2022/08/14 12:00:16;;;;;;;5.15;3.15;;;30.90;59.30;;;;;;5012943;28;20411;-41
2022/08/14 12:02:50;;;;;;;7.57;3.00;;;31.00;57.70;;;;;;4992359;28;20050;-41
2022/08/14 12:05:26;;;;;;;3.75;2.20;;;30.90;57.60;;;;;;5015338;28;20041;-41
2022/08/14 12:07:53;;;;;;;6.45;2.83;;;30.90;57.60;;;;;;5028691;28;20516;-42
2022/08/14 12:10:19;;;;;;;4.90;3.38;;;30.90;57.50;;;;;;5027825;28;20599;-43
2022/08/14 12:12:45;;;;;;;6.22;3.50;;;30.90;58.00;;;;;;5028033;28;20073;-41
2022/08/14 12:15:11;;;;;;;3.53;2.70;;;30.80;64.10;;;;;;5027572;28;20042;-41
2022/08/14 12:17:47;;;;;;;5.45;3.15;;;30.60;55.70;;;;;;5025553;28;20044;-42
2022/08/14 12:20:14;;;;;;;5.30;3.33;;;30.60;56.20;;;;;;5023476;28;20404;-41
2022/08/14 12:22:42;;;;;;;5.57;3.10;;;30.60;56.00;;;;;;5028034;28;20076;-42
2022/08/14 12:25:14;;;;;;;5.40;3.53;;;30.70;55.90;;;;;;5023065;28;20306;-43
2022/08/14 12:27:49;;;;;;;4.03;3.30;;;30.70;56.90;;;;;;5028216;28;20045;-42
2022/08/14 12:30:39;;;;;;;5.65;3.88;;;30.80;55.20;;;;;;5025714;28;20041;-41
2022/08/14 12:33:28;;;;;;;4.28;3.45;;;30.70;55.50;;;;;;5025144;28;20501;-42
2022/08/14 12:35:57;;;;;;;7.38;3.90;;;30.70;58.20;;;;;;5028222;28;20049;-42
2022/08/14 12:38:36;;;;;;;6.80;3.90;;;30.60;58.70;;;;;;5027593;28;20041;-42
2022/08/14 12:41:08;;;;;;;3.88;3.45;;;30.50;64.40;;;;;;5008908;28;20103;-44
2022/08/14 12:43:47;;;;;;;5.25;3.97;;;30.50;60.30;;;;;;5009801;28;20048;-41
2022/08/14 12:46:22;;;;;;;4.45;3.97;;;30.30;59.00;;;;;;5021950;28;20037;-41
2022/08/14 12:48:48;;;;;;;4.32;3.72;;;30.30;60.20;;;;;;5007261;28;20411;-41
2022/08/14 12:51:21;;;;;;;4.07;3.40;;;30.40;59.80;;;;;;5024904;28;20044;-41
2022/08/14 12:53:48;;;;;;;4.80;3.50;;;30.50;59.00;;;;;;5027548;28;20065;-41
2022/08/14 12:56:18;;;;;;;5.32;3.75;;;30.60;59.50;;;;;;5026987;28;20048;-43
2022/08/14 12:58:53;;;;;;;4.93;3.90;;;30.80;60.20;;;;;;5024487;28;20037;-41
2022/08/14 13:01:22;;;;;;;4.50;3.78;;;30.90;59.50;;;;;;5021641;28;20034;-41